Detalii statie MOLDOVA TIGANASI [00001D08]

Toti senzorii

Date Temperatura solului [C]Precipitatii [mm]Voltaj baterie [mV]Leaf Wetness [Min]HC Air temperature [C]HC Relative humidity [%]Punctul de roua [C]
medieminmaxsumaultimatimpmedieminmaxmediemediemin
2019-04-19 19:00:00 10.5 10.4 10.7 0.2 7030 9.15 7.32 10.49 86.88 6.8 6.4
2019-04-19 20:00:00 10.1 10 10.4 0 6992 6.48 5.74 7.26 99.59 6.3 5.7
2019-04-19 21:00:00 9.8 9.7 10 0 6982 6.82 6.63 7.15 98.11 6.4 5.7
2019-04-19 22:00:00 9.4 9.3 9.6 0 6972 5.75 5.29 6.17 100 5.7 5.2
2019-04-19 23:00:00 9.2 9.1 9.4 0 6962 5.72 5.26 6.13 100 5.6 5.2
2019-04-20 00:00:00 8.9 8.7 9.2 0 6962 5.41 4.89 6.06 100 5.3 4.8
2019-04-20 01:00:00 8.7 8.7 8.9 0 6942 4.84 4.7 5.23 100 4.8 4.7
2019-04-20 02:00:00 8.5 8.4 8.7 0 6942 4.34 3.65 4.71 100 4.3 3.6
2019-04-20 03:00:00 8.2 8.1 8.4 0 6932 3.98 3.42 4.66 100 3.9 3.4
2019-04-20 04:00:00 7.8 7.7 8.1 0.2 6914 3.5 3.14 3.88 100 3.4 3.1
2019-04-20 05:00:00 7.5 7.4 7.7 0 6922 3.55 2.31 4.15 100 3.5 2.3
2019-04-20 06:00:00 7.3 7.1 7.5 0 6932 3.33 2.35 4.36 100 3.2 2.3
2019-04-20 07:00:00 7.2 7.1 7.3 0 7098 4.54 3.85 5.99 100 4.5 3.8
2019-04-20 08:00:00 7.3 7 7.6 0 7362 7.43 6.55 7.9 97.8 7 6.5
2019-04-20 09:00:00 7.7 7.4 7.9 0 7372 9.48 8.06 10.54 86.21 7.1 6.7
2019-04-20 10:00:00 8.3 8.1 8.7 0 7362 11.95 11.18 12.99 63.78 5 4
2019-04-20 11:00:00 9 8.7 9.5 0 7362 13.6 12.91 14.43 52.18 3.7 2.8
2019-04-20 12:00:00 9.7 9.5 9.9 0 7362 12.89 12.25 15.11 49.52 2.4 1
2019-04-20 13:00:00 10 9.8 10.3 0 7352 13.74 12.93 15.52 42.48 1 -0.1
2019-04-20 14:00:00 10.2 10.1 10.4 0 7362 14.43 13.48 16.18 39.78 0.6 -0.7
2019-04-20 15:00:00 10.5 10.5 10.7 0 7362 14.43 13.45 15.68 40.66 0.9 -0.3
2019-04-20 16:00:00 10.8 10.7 11 0 7332 15.73 14.37 16.66 36.29 0.6 -0.2
2019-04-20 17:00:00 11.1 11 11.2 0 7236 14.71 14.18 15.19 38.37 0.4 -1
2019-04-20 18:00:00 11 11 11.2 0 7352 13.46 12.7 14.22 41.58 0.4 -1.4
2019-04-20 19:00:00 10.9 10.8 11.1 0 7040 12.66 11.88 13.27 41.74 -0.2 -2.3
2019-04-20 20:00:00 10.6 10.5 10.9 0 6992 10.9 10.25 11.57 49.48 0.6 -0.5
2019-04-20 21:00:00 10.2 10 10.5 0 6982 10.14 8.44 11.09 49.88 0 -0.7
2019-04-20 22:00:00 9.8 9.7 10.1 0 6972 8.66 7.32 9.87 58.19 0.7 0.2
2019-04-20 23:00:00 9.4 9.3 9.6 0 6962 7.95 6.82 8.58 60.29 0.5 0.2
2019-04-21 00:00:00 9.1 9 9.2 0 6962 6.48 5.29 7.69 67.49 0.7 0.3
2019-04-21 01:00:00 8.8 8.6 9 0 6942 5.72 4.32 6.74 71.78 0.8 0.6
2019-04-21 02:00:00 8.5 8.4 8.7 0 6932 5.76 5.15 6.42 69.15 0.4 0.1
2019-04-21 03:00:00 8.3 8.1 8.4 0 6932 4.04 3.45 5.5 85.26 1.6 0.3
2019-04-21 04:00:00 7.9 7.8 8.3 0 6914 2.78 2.45 3.32 95.51 2 1.8
2019-04-21 05:00:00 7.6 7.6 7.8 0 6914 2.14 1.81 2.61 99.4 2 1.8
2019-04-21 06:00:00 7.4 7.3 7.6 0 6932 1.94 1.61 2.5 100 1.9 1.6
2019-04-21 07:00:00 7.3 7.2 7.4 0 7118 3.8 2.81 4.43 96.88 3.2 2.8
2019-04-21 08:00:00 7.4 7.3 7.6 0 7362 6.56 4.67 8.04 81.81 3.5 2.9
2019-04-21 09:00:00 7.8 7.6 8.1 0 7362 8.99 7.5 11.05 78.93 5.3 4.3
2019-04-21 10:00:00 8.5 8.1 8.9 0 7362 13.16 11.53 15.4 64.09 6.2 3.2
2019-04-21 11:00:00 9.3 9 9.7 0 7362 15.84 15.08 16.38 38.04 1.3 0.7
2019-04-21 12:00:00 10 9.7 10.4 0 7362 16.73 16.35 17.26 35.85 1.2 -0.3
2019-04-21 13:00:00 10.7 10.5 11.1 0 7352 17.32 16.59 17.67 35.33 1.6 0.5
2019-04-21 14:00:00 11.3 11 11.6 0 7362 17.51 16.03 18.07 35.97 2 1
2019-04-21 15:00:00 11.6 11.5 11.8 0 7362 17.55 17.16 17.91 35.82 2 0.6
2019-04-21 16:00:00 11.8 11.8 12 0 7362 17.01 16.57 17.35 36.46 1.7 0.7
2019-04-21 17:00:00 11.8 11.7 12 0 7226 16.35 15.85 17.24 37.51 1.6 0.8
2019-04-21 18:00:00 11.7 11.6 11.9 0 7176 15.26 14.84 15.72 40.32 1.6 1